Time;durP1;ratioP1;P1;durP2;ratioP2;P2;SDS_P1;SDS_P2;PMS_P1;PMS_P2;Temp;Humidity;BMP_temperature;BMP_pressure;BME280_temperature;BME280_humidity;BME280_pressure;Samples;Min_cycle;Max_cycle;Signal;HPM_P1;HPM_P2
2022/01/09 00:00:06;;;;;;;11.00;9.70;;;;;;;;;;5091532;28;20396;-45
2022/01/09 00:02:33;;;;;;;12.38;9.90;;;;;;;;;;5090662;28;20037;-48
2022/01/09 00:04:59;;;;;;;13.23;10.40;;;;;;;;;;5091642;28;20040;-48
2022/01/09 00:07:25;;;;;;;11.18;9.98;;;;;;;;;;5091584;28;20122;-45
2022/01/09 00:09:51;;;;;;;12.50;10.23;;;;;;;;;;5090975;28;20036;-48
2022/01/09 00:12:17;;;;;;;12.20;10.02;;;;;;;;;;5090942;28;20299;-46
2022/01/09 00:14:43;;;;;;;11.85;9.60;;;;;;;;;;5091303;28;20485;-46
2022/01/09 00:17:09;;;;;;;11.15;9.95;;;;;;;;;;5090915;28;20046;-45
2022/01/09 00:19:35;;;;;;;11.95;9.70;;;;;;;;;;5091334;28;20040;-46
2022/01/09 00:22:01;;;;;;;10.93;9.52;;;;;;;;;;5090656;28;20036;-47
2022/01/09 00:24:27;;;;;;;11.55;9.88;;;;;;;;;;5091266;28;20039;-48
2022/01/09 00:26:53;;;;;;;11.88;10.27;;;;;;;;;;5091404;28;20032;-45
2022/01/09 00:29:19;;;;;;;13.05;10.35;;;;;;;;;;5091150;28;20032;-46
2022/01/09 00:31:45;;;;;;;11.55;10.10;;;;;;;;;;5090076;28;20096;-46
2022/01/09 00:34:11;;;;;;;12.50;10.70;;;;;;;;;;5090919;28;20040;-49
2022/01/09 00:36:37;;;;;;;13.50;10.68;;;;;;;;;;5090988;28;20185;-45
2022/01/09 00:39:03;;;;;;;12.30;10.23;;;;;;;;;;5091259;28;20043;-46
2022/01/09 00:41:29;;;;;;;12.38;9.82;;;;;;;;;;5090237;28;20048;-46
2022/01/09 00:43:55;;;;;;;12.43;10.05;;;;;;;;;;5090841;28;20115;-45
2022/01/09 00:46:22;;;;;;;12.13;10.70;;;;;;;;;;5090545;28;20388;-49
2022/01/09 00:48:48;;;;;;;11.35;10.05;;;;;;;;;;5090689;28;20097;-46
2022/01/09 00:51:14;;;;;;;14.30;11.07;;;;;;;;;;5090411;28;20044;-45
2022/01/09 00:53:40;;;;;;;12.18;10.43;;;;;;;;;;5090732;28;20042;-45
2022/01/09 00:56:06;;;;;;;13.18;10.88;;;;;;;;;;5090710;28;20040;-46
2022/01/09 00:58:32;;;;;;;11.57;10.27;;;;;;;;;;5090970;28;20042;-46
2022/01/09 01:00:59;;;;;;;13.23;11.18;;;;;;;;;;5089908;28;20408;-45
2022/01/09 01:03:25;;;;;;;12.82;11.40;;;;;;;;;;5090591;28;20052;-45
2022/01/09 01:05:51;;;;;;;12.93;10.88;;;;;;;;;;5090274;28;20036;-45
2022/01/09 01:08:18;;;;;;;14.13;11.77;;;;;;;;;;5090578;28;20396;-45
2022/01/09 01:10:44;;;;;;;14.52;12.23;;;;;;;;;;5090362;28;20075;-46
2022/01/09 01:13:10;;;;;;;12.88;11.55;;;;;;;;;;5089727;28;20048;-46
2022/01/09 01:15:36;;;;;;;15.18;12.45;;;;;;;;;;5089998;28;20039;-46
2022/01/09 01:18:03;;;;;;;13.73;12.27;;;;;;;;;;5090423;28;20083;-46
2022/01/09 01:20:30;;;;;;;15.27;12.52;;;;;;;;;;5090077;28;20071;-46
2022/01/09 01:22:58;;;;;;;17.73;13.90;;;;;;;;;;5089066;28;20044;-46
2022/01/09 01:25:24;;;;;;;16.83;14.55;;;;;;;;;;5090362;28;20044;-47
2022/01/09 01:27:51;;;;;;;16.77;14.98;;;;;;;;;;5090232;28;20590;-46
2022/01/09 01:30:17;;;;;;;20.20;16.58;;;;;;;;;;5090676;28;20043;-46
2022/01/09 01:32:43;;;;;;;22.05;17.88;;;;;;;;;;5089499;28;20401;-46
2022/01/09 01:35:10;;;;;;;22.80;18.83;;;;;;;;;;5090004;28;20040;-46
2022/01/09 01:37:38;;;;;;;24.92;20.30;;;;;;;;;;5090052;28;20058;-46
2022/01/09 01:40:06;;;;;;;25.58;19.70;;;;;;;;;;5072215;28;20052;-48
2022/01/09 01:42:32;;;;;;;24.67;20.33;;;;;;;;;;5089078;28;20071;-46
2022/01/09 01:44:58;;;;;;;30.50;23.30;;;;;;;;;;5090370;28;20032;-46
2022/01/09 01:47:24;;;;;;;29.15;23.20;;;;;;;;;;5090512;28;20097;-46
2022/01/09 01:49:51;;;;;;;30.23;22.95;;;;;;;;;;5090025;28;20040;-45
2022/01/09 01:52:18;;;;;;;30.42;22.58;;;;;;;;;;5089769;28;20044;-45
2022/01/09 01:54:44;;;;;;;30.63;23.35;;;;;;;;;;5071970;28;20035;-45
2022/01/09 01:57:10;;;;;;;33.55;25.02;;;;;;;;;;5089906;28;20485;-46
2022/01/09 01:59:36;;;;;;;32.55;24.25;;;;;;;;;;5089884;28;20512;-46
2022/01/09 02:02:03;;;;;;;30.08;23.73;;;;;;;;;;5088956;28;20036;-46
2022/01/09 02:04:29;;;;;;;33.00;25.35;;;;;;;;;;5089845;28;20036;-48
2022/01/09 02:06:56;;;;;;;33.15;25.10;;;;;;;;;;5089345;28;20094;-46
2022/01/09 02:09:22;;;;;;;32.20;25.15;;;;;;;;;;5089770;28;20040;-48
2022/01/09 02:11:48;;;;;;;31.83;25.13;;;;;;;;;;5086616;28;20127;-47
2022/01/09 02:14:14;;;;;;;34.78;25.55;;;;;;;;;;5094052;28;20039;-48
2022/01/09 02:16:44;;;;;;;31.17;24.67;;;;;;;;;;5092683;28;20040;-49
2022/01/09 02:19:15;;;;;;;34.25;24.92;;;;;;;;;;5089631;28;20397;-47
2022/01/09 02:21:43;;;;;;;33.97;24.13;;;;;;;;;;5088793;28;20074;-47
2022/01/09 02:24:09;;;;;;;30.95;23.23;;;;;;;;;;5089326;28;20040;-46
2022/01/09 02:26:35;;;;;;;33.97;24.00;;;;;;;;;;5089403;28;20044;-46
2022/01/09 02:29:01;;;;;;;33.58;24.13;;;;;;;;;;5071520;28;20490;-46
2022/01/09 02:31:27;;;;;;;30.45;23.50;;;;;;;;;;5088542;28;20096;-46
2022/01/09 02:33:53;;;;;;;30.88;22.70;;;;;;;;;;5092684;28;20036;-45
2022/01/09 02:36:19;;;;;;;30.00;21.45;;;;;;;;;;5093415;28;20036;-46
2022/01/09 02:38:45;;;;;;;29.75;20.08;;;;;;;;;;5093268;28;20400;-46
2022/01/09 02:41:11;;;;;;;28.20;19.48;;;;;;;;;;5092624;28;20452;-45
2022/01/09 02:43:37;;;;;;;24.35;17.30;;;;;;;;;;5092885;28;20032;-45
2022/01/09 02:46:15;;;;;;;27.17;17.88;;;;;;;;;;5093329;28;20489;-45
2022/01/09 02:48:42;;;;;;;24.88;16.73;;;;;;;;;;5093347;28;20040;-48
2022/01/09 02:51:14;;;;;;;24.30;16.30;;;;;;;;;;5092794;28;20542;-45
2022/01/09 02:53:44;;;;;;;21.42;15.88;;;;;;;;;;5093012;28;20497;-45
2022/01/09 02:56:10;;;;;;;24.42;16.17;;;;;;;;;;5093159;28;20046;-46
2022/01/09 02:58:37;;;;;;;22.35;15.70;;;;;;;;;;5092912;28;20283;-48
2022/01/09 03:01:04;;;;;;;25.23;16.20;;;;;;;;;;5092435;28;20088;-45
2022/01/09 03:03:30;;;;;;;27.00;17.35;;;;;;;;;;5092735;28;20036;-45
2022/01/09 03:05:56;;;;;;;24.15;16.20;;;;;;;;;;5092690;28;20032;-48
2022/01/09 03:08:23;;;;;;;23.90;15.98;;;;;;;;;;5092732;28;20392;-48
2022/01/09 03:10:49;;;;;;;26.75;16.02;;;;;;;;;;5092677;28;20032;-47
2022/01/09 03:13:15;;;;;;;27.98;17.13;;;;;;;;;;5091901;28;20130;-47
2022/01/09 03:15:41;;;;;;;24.95;16.52;;;;;;;;;;5092604;28;20366;-45
2022/01/09 03:18:07;;;;;;;29.63;17.23;;;;;;;;;;5092637;28;20036;-45
2022/01/09 03:20:33;;;;;;;29.50;15.98;;;;;;;;;;5092337;28;20044;-46
2022/01/09 03:22:59;;;;;;;27.05;15.95;;;;;;;;;;5091869;28;20044;-46
2022/01/09 03:25:26;;;;;;;27.25;13.13;;;;;;;;;;5092700;28;20040;-48
2022/01/09 03:27:53;;;;;;;24.13;14.00;;;;;;;;;;5091384;28;20047;-45
2022/01/09 03:30:21;;;;;;;22.02;12.18;;;;;;;;;;5091210;28;20489;-46
2022/01/09 03:32:48;;;;;;;24.38;12.13;;;;;;;;;;5073563;28;20047;-46
2022/01/09 03:35:17;;;;;;;21.20;10.77;;;;;;;;;;5091940;28;20482;-47
2022/01/09 03:37:44;;;;;;;17.77;8.95;;;;;;;;;;5092353;28;20074;-47
2022/01/09 03:40:12;;;;;;;20.38;8.05;;;;;;;;;;5092191;28;20085;-46
2022/01/09 03:42:38;;;;;;;19.85;7.22;;;;;;;;;;5091265;28;20404;-46
2022/01/09 03:45:05;;;;;;;17.45;6.43;;;;;;;;;;5090519;28;20040;-46
2022/01/09 03:47:31;;;;;;;17.52;6.47;;;;;;;;;;5091632;28;20042;-46
2022/01/09 03:49:57;;;;;;;24.90;7.00;;;;;;;;;;5091924;28;20044;-49
2022/01/09 03:52:27;;;;;;;27.92;6.78;;;;;;;;;;5091192;28;20130;-45
2022/01/09 03:54:54;;;;;;;28.63;6.70;;;;;;;;;;5073557;28;20044;-45
2022/01/09 03:57:21;;;;;;;36.45;8.48;;;;;;;;;;5091721;28;20032;-47
2022/01/09 03:59:47;;;;;;;28.45;6.93;;;;;;;;;;5091445;28;20047;-45
2022/01/09 04:02:13;;;;;;;31.13;7.10;;;;;;;;;;5090582;28;20123;-45
2022/01/09 04:04:39;;;;;;;39.33;7.03;;;;;;;;;;5091710;28;20508;-47
2022/01/09 04:07:05;;;;;;;27.98;6.38;;;;;;;;;;5091796;28;20063;-48
2022/01/09 04:09:43;;;;;;;30.42;5.82;;;;;;;;;;5091271;28;20061;-46
2022/01/09 04:12:17;;;;;;;30.83;5.20;;;;;;;;;;5090619;28;20119;-45
2022/01/09 04:14:44;;;;;;;34.28;5.97;;;;;;;;;;5090856;28;20044;-45
2022/01/09 04:17:17;;;;;;;35.35;6.85;;;;;;;;;;5091401;28;20062;-47
2022/01/09 04:19:43;;;;;;;33.05;6.38;;;;;;;;;;5091132;28;20044;-47
2022/01/09 04:22:09;;;;;;;35.72;6.10;;;;;;;;;;5090452;28;20474;-47
2022/01/09 04:24:35;;;;;;;36.95;6.93;;;;;;;;;;5091019;28;20058;-46
2022/01/09 04:27:02;;;;;;;34.22;7.07;;;;;;;;;;5090727;28;20036;-46
2022/01/09 04:29:28;;;;;;;31.70;5.85;;;;;;;;;;5090799;28;20040;-47
2022/01/09 04:31:54;;;;;;;35.65;6.72;;;;;;;;;;5090263;28;20440;-46
2022/01/09 04:34:20;;;;;;;26.30;5.53;;;;;;;;;;5091130;28;20036;-47
2022/01/09 04:36:46;;;;;;;32.92;6.30;;;;;;;;;;5090963;28;20040;-45
2022/01/09 04:39:12;;;;;;;38.28;6.88;;;;;;;;;;5090913;28;20157;-46
2022/01/09 04:41:39;;;;;;;33.03;6.15;;;;;;;;;;5089848;28;20036;-46
2022/01/09 04:44:05;;;;;;;39.90;8.07;;;;;;;;;;5072198;28;20075;-46
2022/01/09 04:46:41;;;;;;;30.10;5.78;;;;;;;;;;5090963;28;20064;-48
2022/01/09 04:49:07;;;;;;;40.97;6.43;;;;;;;;;;5090824;28;20044;-48
2022/01/09 04:51:33;;;;;;;34.78;6.30;;;;;;;;;;5090194;28;20457;-46
2022/01/09 04:53:59;;;;;;;35.33;5.90;;;;;;;;;;5090986;28;20124;-47
2022/01/09 04:56:27;;;;;;;33.10;5.47;;;;;;;;;;5090402;28;20062;-49
2022/01/09 04:58:53;;;;;;;21.55;4.53;;;;;;;;;;5090247;28;20051;-47
2022/01/09 05:01:19;;;;;;;29.77;5.72;;;;;;;;;;5071801;28;20513;-46
2022/01/09 05:03:45;;;;;;;31.05;6.03;;;;;;;;;;5090359;28;20123;-45
2022/01/09 05:06:11;;;;;;;28.20;5.13;;;;;;;;;;5072035;28;20036;-46
2022/01/09 05:08:37;;;;;;;27.02;5.13;;;;;;;;;;5090041;28;20408;-46
2022/01/09 05:11:03;;;;;;;21.92;4.45;;;;;;;;;;5089766;28;20051;-47
2022/01/09 05:13:29;;;;;;;26.10;5.20;;;;;;;;;;5091199;28;20051;-49
2022/01/09 05:15:55;;;;;;;24.80;4.55;;;;;;;;;;5091680;28;20051;-47
2022/01/09 05:18:22;;;;;;;23.15;4.80;;;;;;;;;;5091860;28;20067;-47
2022/01/09 05:20:48;;;;;;;21.92;5.07;;;;;;;;;;5091669;28;20094;-48
2022/01/09 05:23:14;;;;;;;29.38;5.05;;;;;;;;;;5090870;28;20149;-47
2022/01/09 05:25:40;;;;;;;26.90;5.60;;;;;;;;;;5090896;28;20040;-48
2022/01/09 05:28:06;;;;;;;22.48;4.40;;;;;;;;;;5091373;28;20082;-50
2022/01/09 05:30:32;;;;;;;27.75;5.53;;;;;;;;;;5091476;28;20032;-48
2022/01/09 05:32:58;;;;;;;24.42;4.40;;;;;;;;;;5072883;28;20036;-47
2022/01/09 05:35:25;;;;;;;18.33;3.70;;;;;;;;;;5072618;28;20079;-49
2022/01/09 05:37:52;;;;;;;18.95;4.18;;;;;;;;;;5090755;28;20032;-50
2022/01/09 05:40:19;;;;;;;22.65;4.20;;;;;;;;;;5090552;28;20051;-45
2022/01/09 05:42:46;;;;;;;17.13;3.67;;;;;;;;;;5090439;28;20051;-49
2022/01/09 05:45:12;;;;;;;21.00;4.57;;;;;;;;;;5090994;28;20075;-47
2022/01/09 05:47:38;;;;;;;18.50;4.15;;;;;;;;;;5091014;28;20397;-47
2022/01/09 05:50:07;;;;;;;16.52;3.40;;;;;;;;;;5090640;28;20123;-47
2022/01/09 05:52:33;;;;;;;20.70;3.40;;;;;;;;;;5072054;28;20131;-47
2022/01/09 05:54:59;;;;;;;19.05;3.17;;;;;;;;;;5090120;28;20044;-48
2022/01/09 05:57:25;;;;;;;17.90;3.42;;;;;;;;;;5072109;28;20101;-51
2022/01/09 05:59:52;;;;;;;14.10;2.78;;;;;;;;;;5090469;28;20040;-48
2022/01/09 06:02:18;;;;;;;14.45;2.75;;;;;;;;;;5090529;28;20701;-46
2022/01/09 06:04:44;;;;;;;17.90;3.38;;;;;;;;;;5090487;28;20040;-49
2022/01/09 06:07:11;;;;;;;16.48;3.00;;;;;;;;;;5097934;28;20543;-46
2022/01/09 06:09:37;;;;;;;19.92;3.33;;;;;;;;;;5090086;28;20477;-47
2022/01/09 06:12:03;;;;;;;20.27;3.53;;;;;;;;;;5089164;28;20051;-47
2022/01/09 06:14:29;;;;;;;18.45;3.88;;;;;;;;;;5089775;28;20397;-47
2022/01/09 06:16:55;;;;;;;15.70;3.72;;;;;;;;;;5089540;28;20040;-47
2022/01/09 06:19:21;;;;;;;19.67;4.28;;;;;;;;;;5089175;28;20464;-48
2022/01/09 06:21:47;;;;;;;20.83;3.25;;;;;;;;;;5088315;28;20385;-46
2022/01/09 06:24:13;;;;;;;17.55;3.35;;;;;;;;;;5089112;28;20119;-46
2022/01/09 06:26:42;;;;;;;18.70;3.90;;;;;;;;;;5089065;28;20461;-46
2022/01/09 06:29:12;;;;;;;17.58;3.53;;;;;;;;;;5089113;28;20036;-45
2022/01/09 06:31:38;;;;;;;24.65;4.18;;;;;;;;;;5088391;28;20456;-47
2022/01/09 06:34:04;;;;;;;19.40;3.58;;;;;;;;;;5088947;28;20055;-48
2022/01/09 06:36:30;;;;;;;22.27;3.47;;;;;;;;;;5088625;28;20078;-45
2022/01/09 06:38:56;;;;;;;17.77;4.10;;;;;;;;;;5089256;28;20290;-47
2022/01/09 06:41:23;;;;;;;18.08;3.40;;;;;;;;;;5088225;28;20382;-47
2022/01/09 06:43:49;;;;;;;16.40;3.30;;;;;;;;;;5088883;28;20067;-47
2022/01/09 06:46:15;;;;;;;17.73;3.40;;;;;;;;;;5088786;28;20082;-46
2022/01/09 06:48:41;;;;;;;17.40;3.35;;;;;;;;;;5088798;28;20436;-46
2022/01/09 06:51:07;;;;;;;15.38;3.33;;;;;;;;;;5088074;28;20044;-49
2022/01/09 06:53:33;;;;;;;16.00;3.60;;;;;;;;;;5088855;28;20040;-46
2022/01/09 06:55:59;;;;;;;21.05;4.25;;;;;;;;;;5088415;28;20194;-46
2022/01/09 06:58:26;;;;;;;14.70;2.47;;;;;;;;;;5088806;28;20052;-47
2022/01/09 07:00:52;;;;;;;19.67;3.83;;;;;;;;;;5085757;28;20069;-49
2022/01/09 07:03:19;;;;;;;10.95;2.47;;;;;;;;;;5101065;28;20054;-46
2022/01/09 07:05:45;;;;;;;17.70;2.63;;;;;;;;;;5109307;28;20062;-45
2022/01/09 07:08:11;;;;;;;12.60;3.08;;;;;;;;;;5096805;28;20066;-44
2022/01/09 07:10:37;;;;;;;9.82;2.95;;;;;;;;;;5108905;28;20050;-45
2022/01/09 07:13:18;;;;;;;12.57;2.67;;;;;;;;;;5090189;28;20128;-45
2022/01/09 07:15:44;;;;;;;14.07;3.05;;;;;;;;;;5108757;28;20310;-46
2022/01/09 07:18:10;;;;;;;13.18;3.28;;;;;;;;;;5102795;28;20406;-45
2022/01/09 07:20:37;;;;;;;13.02;2.40;;;;;;;;;;5097493;28;20048;-46
2022/01/09 07:23:03;;;;;;;7.50;1.83;;;;;;;;;;5090603;28;20047;-46
2022/01/09 07:25:29;;;;;;;8.40;2.92;;;;;;;;;;5098155;28;20035;-47
2022/01/09 07:27:55;;;;;;;8.15;2.00;;;;;;;;;;5096898;28;20036;-45
2022/01/09 07:30:28;;;;;;;9.15;2.15;;;;;;;;;;5096501;28;20032;-45
2022/01/09 07:33:12;;;;;;;12.70;2.30;;;;;;;;;;5096249;28;20040;-48
2022/01/09 07:35:38;;;;;;;7.97;2.00;;;;;;;;;;5094358;28;20427;-46
2022/01/09 07:38:04;;;;;;;6.50;2.05;;;;;;;;;;5096972;28;20032;-46
2022/01/09 07:40:33;;;;;;;5.20;1.60;;;;;;;;;;5092254;28;20097;-46
2022/01/09 07:42:59;;;;;;;7.80;2.00;;;;;;;;;;5095921;28;20040;-47
2022/01/09 07:45:27;;;;;;;8.98;1.92;;;;;;;;;;5104409;28;20051;-48
2022/01/09 07:47:54;;;;;;;4.95;1.25;;;;;;;;;;5098724;28;20459;-47
2022/01/09 07:50:23;;;;;;;7.95;1.90;;;;;;;;;;5105410;28;20042;-46
2022/01/09 07:52:50;;;;;;;2.72;1.38;;;;;;;;;;5102711;28;20062;-47
2022/01/09 07:55:19;;;;;;;7.00;1.85;;;;;;;;;;5094775;28;20035;-45
2022/01/09 07:57:46;;;;;;;7.20;1.50;;;;;;;;;;5099660;28;20404;-47
2022/01/09 08:00:13;;;;;;;9.40;3.63;;;;;;;;;;5099906;28;20039;-46
2022/01/09 08:02:39;;;;;;;8.95;2.40;;;;;;;;;;5097586;28;20040;-48
2022/01/09 08:05:05;;;;;;;9.68;2.08;;;;;;;;;;5099363;28;20036;-46
2022/01/09 08:07:31;;;;;;;7.18;1.65;;;;;;;;;;5094965;28;20108;-47
2022/01/09 08:09:57;;;;;;;10.20;2.28;;;;;;;;;;5078626;28;20123;-47
2022/01/09 08:12:29;;;;;;;11.30;2.30;;;;;;;;;;5100065;28;20070;-45
2022/01/09 08:14:55;;;;;;;6.43;1.88;;;;;;;;;;5102346;28;20036;-48
2022/01/09 08:17:21;;;;;;;8.90;2.35;;;;;;;;;;5096450;28;20036;-46
2022/01/09 08:19:48;;;;;;;10.90;2.13;;;;;;;;;;5093131;28;20039;-45
2022/01/09 08:22:14;;;;;;;7.03;1.63;;;;;;;;;;5092944;28;20040;-46
2022/01/09 08:24:43;;;;;;;9.77;2.40;;;;;;;;;;5075428;28;20557;-47
2022/01/09 08:27:10;;;;;;;9.82;2.67;;;;;;;;;;5108530;28;20038;-46
2022/01/09 08:29:37;;;;;;;5.85;1.52;;;;;;;;;;5099799;28;20036;-47
2022/01/09 08:32:07;;;;;;;7.10;2.08;;;;;;;;;;5097744;28;20040;-46
2022/01/09 08:34:33;;;;;;;6.15;2.30;;;;;;;;;;5099024;28;20071;-46
2022/01/09 08:37:03;;;;;;;8.18;1.80;;;;;;;;;;5111498;28;20040;-45
2022/01/09 08:39:32;;;;;;;7.63;1.98;;;;;;;;;;5111706;28;20043;-46
2022/01/09 08:42:01;;;;;;;8.80;1.95;;;;;;;;;;5110586;28;20042;-45
2022/01/09 08:44:30;;;;;;;14.32;2.53;;;;;;;;;;5111586;28;20035;-47
2022/01/09 08:47:02;;;;;;;8.02;1.85;;;;;;;;;;5104042;28;20032;-48
2022/01/09 08:49:28;;;;;;;10.65;2.55;;;;;;;;;;5105840;28;20050;-45
2022/01/09 08:51:57;;;;;;;9.20;1.85;;;;;;;;;;5101260;28;20039;-45
2022/01/09 08:54:24;;;;;;;10.50;2.55;;;;;;;;;;5103430;28;20035;-46
2022/01/09 08:56:53;;;;;;;8.13;2.03;;;;;;;;;;5102139;28;20459;-45
2022/01/09 08:59:19;;;;;;;7.22;1.90;;;;;;;;;;5105705;28;20032;-46
2022/01/09 09:01:49;;;;;;;5.78;1.70;;;;;;;;;;5096090;28;20513;-47
2022/01/09 09:04:18;;;;;;;8.35;1.60;;;;;;;;;;5103012;28;20063;-45
2022/01/09 09:06:44;;;;;;;7.45;2.08;;;;;;;;;;5083143;28;20090;-45
2022/01/09 09:09:10;;;;;;;7.97;2.00;;;;;;;;;;5101413;28;20031;-46
2022/01/09 09:11:37;;;;;;;6.78;2.00;;;;;;;;;;5096282;28;20044;-47
2022/01/09 09:14:04;;;;;;;7.45;1.88;;;;;;;;;;5078959;28;20028;-45
2022/01/09 09:16:33;;;;;;;7.47;2.20;;;;;;;;;;5105816;28;20042;-45
2022/01/09 09:19:02;;;;;;;10.07;2.30;;;;;;;;;;5092567;28;20028;-48
2022/01/09 09:21:28;;;;;;;10.00;2.83;;;;;;;;;;5096438;28;20040;-45
2022/01/09 09:23:54;;;;;;;10.73;2.38;;;;;;;;;;5102578;28;20592;-47
2022/01/09 09:26:21;;;;;;;12.27;2.60;;;;;;;;;;5111067;28;20186;-47
2022/01/09 09:28:47;;;;;;;10.95;2.47;;;;;;;;;;5110865;28;20062;-46
2022/01/09 09:31:19;;;;;;;9.10;1.95;;;;;;;;;;5100734;28;20040;-46
2022/01/09 09:33:45;;;;;;;11.13;2.80;;;;;;;;;;5101217;28;20044;-45
2022/01/09 09:36:12;;;;;;;9.63;2.53;;;;;;;;;;5107794;28;20032;-45
2022/01/09 09:38:38;;;;;;;11.93;2.17;;;;;;;;;;5106736;28;20543;-45
2022/01/09 09:41:04;;;;;;;10.05;2.92;;;;;;;;;;5078739;28;20067;-44
2022/01/09 09:43:30;;;;;;;13.00;2.80;;;;;;;;;;5088855;28;20381;-45
2022/01/09 09:45:56;;;;;;;8.55;2.67;;;;;;;;;;5105618;28;20316;-46
2022/01/09 09:48:23;;;;;;;9.98;2.55;;;;;;;;;;5089506;28;20032;-46
2022/01/09 09:50:49;;;;;;;6.38;2.25;;;;;;;;;;5088882;28;20082;-46
2022/01/09 09:53:18;;;;;;;11.75;2.40;;;;;;;;;;5101916;28;20048;-47
2022/01/09 09:55:46;;;;;;;9.48;2.95;;;;;;;;;;5090662;28;20048;-45
2022/01/09 09:58:12;;;;;;;11.73;2.50;;;;;;;;;;5090727;28;20047;-45
2022/01/09 10:00:39;;;;;;;8.25;2.15;;;;;;;;;;5088884;28;20046;-48
2022/01/09 10:03:07;;;;;;;9.88;2.83;;;;;;;;;;5087697;28;20083;-49
2022/01/09 10:05:37;;;;;;;10.02;2.38;;;;;;;;;;5088179;28;20119;-47
2022/01/09 10:08:08;;;;;;;11.88;2.88;;;;;;;;;;5090192;28;20036;-46
2022/01/09 10:10:35;;;;;;;10.43;2.72;;;;;;;;;;5090815;28;20081;-47
2022/01/09 10:13:11;;;;;;;8.73;2.53;;;;;;;;;;5089789;28;20044;-46
2022/01/09 10:15:56;;;;;;;13.30;3.25;;;;;;;;;;5101702;28;20048;-46
2022/01/09 10:18:42;;;;;;;15.25;3.05;;;;;;;;;;5110383;28;20043;-46
2022/01/09 10:21:09;;;;;;;10.05;2.53;;;;;;;;;;5105778;28;20047;-49
2022/01/09 10:23:35;;;;;;;7.93;2.70;;;;;;;;;;5104621;28;20308;-47
2022/01/09 10:26:11;;;;;;;10.10;2.35;;;;;;;;;;5105300;28;20031;-47
2022/01/09 10:28:39;;;;;;;10.30;2.85;;;;;;;;;;5089422;28;20075;-48
2022/01/09 10:31:14;;;;;;;9.65;2.13;;;;;;;;;;5109470;28;20262;-48
2022/01/09 10:33:40;;;;;;;12.05;2.58;;;;;;;;;;5110204;28;20043;-45
2022/01/09 10:36:06;;;;;;;11.95;2.45;;;;;;;;;;5110842;28;20047;-46
2022/01/09 10:38:32;;;;;;;11.40;2.97;;;;;;;;;;5110844;28;20047;-46
2022/01/09 10:41:01;;;;;;;11.82;3.13;;;;;;;;;;5111305;28;20127;-47
2022/01/09 10:43:33;;;;;;;6.05;2.50;;;;;;;;;;5110917;28;20497;-46
2022/01/09 10:45:59;;;;;;;11.32;2.47;;;;;;;;;;5111184;28;20042;-48
2022/01/09 10:48:27;;;;;;;8.90;2.47;;;;;;;;;;5092893;28;20108;-47
2022/01/09 10:50:54;;;;;;;11.90;2.88;;;;;;;;;;5110480;28;20039;-47
2022/01/09 10:53:26;;;;;;;6.65;2.20;;;;;;;;;;5092841;28;20130;-46
2022/01/09 10:56:11;;;;;;;10.63;2.47;;;;;;;;;;5115234;28;20065;-47
2022/01/09 10:58:39;;;;;;;10.75;2.38;;;;;;;;;;5115477;28;20044;-48
2022/01/09 11:01:09;;;;;;;8.63;2.63;;;;;;;;;;5114803;28;20043;-47
2022/01/09 11:03:36;;;;;;;11.88;2.47;;;;;;;;;;5101974;28;20063;-46
2022/01/09 11:06:02;;;;;;;8.40;2.58;;;;;;;;;;5095176;28;20060;-47
2022/01/09 11:08:31;;;;;;;10.00;3.00;;;;;;;;;;5111022;28;20129;-48
2022/01/09 11:10:58;;;;;;;10.55;2.50;;;;;;;;;;5109860;28;20039;-49
2022/01/09 11:13:26;;;;;;;12.45;3.10;;;;;;;;;;5109975;28;20089;-45
2022/01/09 11:18:40;;;;;;;12.77;2.63;;;;;;;;;;5109407;28;20035;-47
2022/01/09 11:21:06;;;;;;;8.63;1.77;;;;;;;;;;5111281;28;20100;-45
2022/01/09 11:23:58;;;;;;;12.10;2.75;;;;;;;;;;5114662;28;20093;-46
2022/01/09 11:26:28;;;;;;;8.32;2.30;;;;;;;;;;5075620;28;20051;-46
2022/01/09 11:28:55;;;;;;;11.23;2.42;;;;;;;;;;5114387;28;20039;-50
2022/01/09 11:31:36;;;;;;;9.38;3.00;;;;;;;;;;5113869;28;20035;-46
2022/01/09 11:34:11;;;;;;;10.30;2.83;;;;;;;;;;5114165;28;20046;-48
2022/01/09 11:36:56;;;;;;;16.48;2.95;;;;;;;;;;5113911;28;20042;-46
2022/01/09 11:39:24;;;;;;;8.35;2.40;;;;;;;;;;5112697;28;20027;-47
2022/01/09 11:42:07;;;;;;;11.23;3.03;;;;;;;;;;5112977;28;20092;-47
2022/01/09 11:44:33;;;;;;;8.90;2.65;;;;;;;;;;5113627;28;20058;-47
2022/01/09 11:47:07;;;;;;;9.82;3.63;;;;;;;;;;5113615;28;20477;-47
2022/01/09 11:49:52;;;;;;;15.30;3.35;;;;;;;;;;5095660;28;20454;-46
2022/01/09 11:52:19;;;;;;;12.23;2.50;;;;;;;;;;5113509;28;20043;-46
2022/01/09 11:54:49;;;;;;;15.10;3.08;;;;;;;;;;5113235;28;20447;-46
2022/01/09 11:57:41;;;;;;;9.85;3.20;;;;;;;;;;5113141;28;20228;-46
2022/01/09 12:00:08;;;;;;;13.15;2.92;;;;;;;;;;5112495;28;20114;-50
2022/01/09 12:02:35;;;;;;;11.98;2.92;;;;;;;;;;5112642;28;20046;-47
2022/01/09 12:05:06;;;;;;;6.70;2.30;;;;;;;;;;5112127;28;20118;-47
2022/01/09 12:07:35;;;;;;;12.30;2.55;;;;;;;;;;5112978;28;20039;-47
2022/01/09 12:10:01;;;;;;;11.35;2.40;;;;;;;;;;5112423;28;20040;-48
2022/01/09 12:12:37;;;;;;;13.55;3.92;;;;;;;;;;5112533;28;20119;-48
2022/01/09 12:15:08;;;;;;;11.45;2.83;;;;;;;;;;5113177;28;20067;-48
2022/01/09 12:17:36;;;;;;;10.52;2.88;;;;;;;;;;5112470;28;20085;-47
2022/01/09 12:20:11;;;;;;;8.82;2.58;;;;;;;;;;5110338;28;20413;-47
2022/01/09 12:22:40;;;;;;;11.63;2.75;;;;;;;;;;5099263;28;20044;-47
2022/01/09 12:25:07;;;;;;;12.20;2.45;;;;;;;;;;5092576;28;20044;-47
2022/01/09 12:27:38;;;;;;;11.77;3.17;;;;;;;;;;5092344;28;20504;-47
2022/01/09 12:30:05;;;;;;;9.43;3.20;;;;;;;;;;5091657;28;20036;-51
2022/01/09 12:32:38;;;;;;;13.00;2.30;;;;;;;;;;5092178;28;20036;-46
2022/01/09 12:35:18;;;;;;;11.35;2.33;;;;;;;;;;5092262;28;20040;-49
2022/01/09 12:37:48;;;;;;;12.75;3.22;;;;;;;;;;5092163;28;20477;-47
2022/01/09 12:40:15;;;;;;;10.02;2.55;;;;;;;;;;5092146;28;20040;-48
2022/01/09 12:42:47;;;;;;;10.82;2.53;;;;;;;;;;5091447;28;20051;-46
2022/01/09 12:45:19;;;;;;;12.73;3.00;;;;;;;;;;5092149;28;20051;-48
2022/01/09 12:47:45;;;;;;;11.88;4.20;;;;;;;;;;5097290;28;20032;-46
2022/01/09 12:50:11;;;;;;;8.48;2.40;;;;;;;;;;5104989;28;20400;-48
2022/01/09 12:52:37;;;;;;;10.82;3.45;;;;;;;;;;5100078;28;20381;-46
2022/01/09 12:55:07;;;;;;;14.07;3.30;;;;;;;;;;5099772;28;20040;-48
2022/01/09 12:57:52;;;;;;;11.35;2.88;;;;;;;;;;5099082;28;20104;-49
2022/01/09 13:00:28;;;;;;;11.32;2.70;;;;;;;;;;5092591;28;20036;-47
2022/01/09 13:02:54;;;;;;;15.57;2.95;;;;;;;;;;5093339;28;20035;-47
2022/01/09 13:05:24;;;;;;;8.70;2.15;;;;;;;;;;5094702;28;20055;-46
2022/01/09 13:08:00;;;;;;;10.18;1.92;;;;;;;;;;5102592;28;20035;-47
2022/01/09 13:10:30;;;;;;;8.60;2.05;;;;;;;;;;5099240;28;20039;-47
2022/01/09 13:13:04;;;;;;;9.30;2.03;;;;;;;;;;5096675;28;20164;-48
2022/01/09 13:15:30;;;;;;;10.50;1.90;;;;;;;;;;5098406;28;20148;-48
2022/01/09 13:17:56;;;;;;;10.45;1.60;;;;;;;;;;5101482;28;20520;-46
2022/01/09 13:20:24;;;;;;;7.22;1.80;;;;;;;;;;5104522;28;20039;-47
2022/01/09 13:23:01;;;;;;;7.13;1.55;;;;;;;;;;5100583;28;20040;-46
2022/01/09 13:25:27;;;;;;;8.88;1.63;;;;;;;;;;5103787;28;20084;-46
2022/01/09 13:27:53;;;;;;;8.77;1.95;;;;;;;;;;5098863;28;20114;-48
2022/01/09 13:30:21;;;;;;;8.45;1.88;;;;;;;;;;5104309;28;20054;-47
2022/01/09 13:32:47;;;;;;;7.40;1.65;;;;;;;;;;5104716;28;20077;-46
2022/01/09 13:35:13;;;;;;;9.50;2.08;;;;;;;;;;5104093;28;20050;-45
2022/01/09 13:37:40;;;;;;;8.30;1.98;;;;;;;;;;5103944;28;20042;-45
2022/01/09 13:40:10;;;;;;;7.07;2.05;;;;;;;;;;5103972;28;20484;-45
2022/01/09 13:42:36;;;;;;;4.65;1.60;;;;;;;;;;5099703;28;20036;-46
2022/01/09 13:45:05;;;;;;;7.45;1.92;;;;;;;;;;5097428;28;20028;-46
2022/01/09 13:47:31;;;;;;;7.50;2.00;;;;;;;;;;5070178;28;20398;-46
2022/01/09 13:49:59;;;;;;;13.07;2.58;;;;;;;;;;5100242;28;20108;-46
2022/01/09 13:52:27;;;;;;;4.10;1.73;;;;;;;;;;5098778;28;20078;-46
2022/01/09 13:55:04;;;;;;;8.93;2.10;;;;;;;;;;5107194;28;20145;-45
2022/01/09 13:57:33;;;;;;;6.45;2.05;;;;;;;;;;5093021;28;20040;-45
2022/01/09 14:00:01;;;;;;;10.32;1.75;;;;;;;;;;5096918;28;20445;-46
2022/01/09 14:02:38;;;;;;;5.55;1.70;;;;;;;;;;5087105;28;20123;-46
2022/01/09 14:05:15;;;;;;;4.72;1.40;;;;;;;;;;5089322;28;20097;-46
2022/01/09 14:07:58;;;;;;;4.90;1.40;;;;;;;;;;5088970;28;20040;-49
2022/01/09 14:10:35;;;;;;;4.93;1.10;;;;;;;;;;5090176;28;20071;-46
2022/01/09 14:13:01;;;;;;;4.53;1.30;;;;;;;;;;5089940;28;20043;-46
2022/01/09 14:15:28;;;;;;;2.83;1.20;;;;;;;;;;5090181;28;20509;-46
2022/01/09 14:17:54;;;;;;;2.92;0.85;;;;;;;;;;5090327;28;20032;-46
2022/01/09 14:20:20;;;;;;;4.65;1.25;;;;;;;;;;5090232;28;20075;-45
2022/01/09 14:22:53;;;;;;;3.83;1.23;;;;;;;;;;5071267;28;20051;-45
2022/01/09 14:25:25;;;;;;;6.60;1.20;;;;;;;;;;5090077;28;20124;-47
2022/01/09 14:27:52;;;;;;;3.15;0.93;;;;;;;;;;5090815;28;20062;-45
2022/01/09 14:30:28;;;;;;;6.35;1.38;;;;;;;;;;5096926;28;20050;-48
2022/01/09 14:33:13;;;;;;;7.97;1.48;;;;;;;;;;5096691;28;20128;-47
2022/01/09 14:35:39;;;;;;;4.20;1.23;;;;;;;;;;5097131;28;20130;-49
2022/01/09 14:38:07;;;;;;;3.85;1.42;;;;;;;;;;5097025;28;20052;-46